KSFZ

North Central State Airport

Pawtucket, Rhode Island, USA
METAR KSFZ 230556Z AUTO 00000KT 10SM OVC080 04/02 A3017 RMK AO2 SLP165 T00390017 10056 20017 58007
Observed Flight Rules
Oct-23 @ 05:56 UTC (22 minutes ago) Visual Flight Rules
Visibility Clouds
10 miles
  • Overcast at 8,000' AGL
Temperatures Readings
Current 4°C / 39°F
Dewpoint 2°C / 36°F
Humidity 87%
Altimeter 30.17" Hg
Pressure 1016.5 hPa
Elevation 134
METAR KSFZ 230556Z AUTO 00000KT 10SM OVC080 04/02 A3017 RMK AO2 SLP165 T00390017 10056 20017 58007
Observed Flight Rules
Oct-23 @ 05:56 UTC
(22 minutes ago)
VFR
Clouds
  • Overcast at 8,000' AGL
Temperature Dewpoint
4°C / 39°F 2°C / 36°F
Humidity Altimeter Pressure
87% 30.17" Hg 1016.5 hPa